Time;durP1;ratioP1;P1;durP2;ratioP2;P2;SDS_P1;SDS_P2;PMS_P1;PMS_P2;Temp;Humidity;BMP_temperature;BMP_pressure;BME280_temperature;BME280_humidity;BME280_pressure;Samples;Min_cycle;Max_cycle;Signal;HPM_P1;HPM_P2
2021/07/29 00:01:29;;;;;;;3.00;2.80;;;14.40;99.90;;;;;;490877;241;28614;-71
2021/07/29 00:03:30;;;;;;;5.83;2.87;;;14.40;99.90;;;;;;491074;241;28444;-71
2021/07/29 00:05:31;;;;;;;2.90;2.70;;;14.50;99.90;;;;;;491096;241;28396;-69
2021/07/29 00:07:34;;;;;;;3.70;3.40;;;;;;;;;;491126;240;28214;-71
2021/07/29 00:09:35;;;;;;;3.10;2.90;;;14.40;99.90;;;;;;491094;241;26280;-70
2021/07/29 00:11:37;;;;;;;3.40;3.10;;;14.40;99.90;;;;;;491018;241;29427;-70
2021/07/29 00:13:38;;;;;;;2.90;2.70;;;14.40;99.90;;;;;;491097;241;28849;-70
2021/07/29 00:15:39;;;;;;;3.50;3.20;;;14.40;99.90;;;;;;491078;241;28764;-70
2021/07/29 00:19:52;;;;;;;2.90;2.70;;;14.40;99.90;;;;;;491108;241;27452;-69
2021/07/29 00:21:54;;;;;;;3.40;3.10;;;;;;;;;;491115;241;28185;-70
2021/07/29 00:23:55;;;;;;;2.83;2.63;;;14.40;99.90;;;;;;491095;241;27385;-70
2021/07/29 00:25:56;;;;;;;2.67;2.47;;;14.40;99.90;;;;;;491080;240;28305;-70
2021/07/29 00:27:59;;;;;;;2.80;2.60;;;;;;;;;;491106;241;28195;-70
2021/07/29 00:30:00;;;;;;;3.00;2.77;;;14.40;99.90;;;;;;491135;241;27516;-69
2021/07/29 00:32:01;;;;;;;2.80;2.60;;;14.50;99.90;;;;;;491133;240;28429;-69
2021/07/29 00:34:02;;;;;;;3.93;2.77;;;14.40;99.90;;;;;;491055;241;28409;-70
2021/07/29 00:36:03;;;;;;;3.63;2.77;;;14.40;99.90;;;;;;490768;241;28770;-69
2021/07/29 00:38:05;;;;;;;3.47;2.63;;;14.40;99.90;;;;;;490613;241;28901;-69
2021/07/29 00:40:06;;;;;;;3.80;2.93;;;14.40;99.90;;;;;;490751;241;28651;-70
2021/07/29 00:42:07;;;;;;;2.70;2.40;;;14.30;99.90;;;;;;491122;241;28398;-70
2021/07/29 00:44:10;;;;;;;3.50;3.13;;;;;;;;;;491106;241;28228;-69
2021/07/29 00:46:11;;;;;;;3.77;3.00;;;14.30;99.90;;;;;;491113;241;26527;-70
2021/07/29 00:48:13;;;;;;;3.60;3.30;;;14.20;99.90;;;;;;491101;241;28595;-69
2021/07/29 00:50:13;;;;;;;3.33;2.80;;;14.20;99.90;;;;;;491087;241;29050;-70
2021/07/29 00:52:15;;;;;;;2.87;2.67;;;14.20;99.90;;;;;;491065;241;29130;-70
2021/07/29 00:54:17;;;;;;;3.40;3.10;;;;;;;;;;491083;241;28820;-71
2021/07/29 00:56:18;;;;;;;3.27;2.97;;;14.20;99.90;;;;;;491065;241;27595;-70
2021/07/29 00:58:19;;;;;;;3.30;2.90;;;14.20;99.90;;;;;;491106;241;28208;-71
2021/07/29 01:00:22;;;;;;;3.97;2.40;;;;;;;;;;491104;241;28370;-71
2021/07/29 01:02:24;;;;;;;3.00;2.80;;;;;;;;;;491073;241;26276;-69
2021/07/29 01:04:26;;;;;;;3.10;2.80;;;;;;;;;;491110;241;27472;-69
2021/07/29 01:06:27;;;;;;;2.80;2.60;;;14.20;99.90;;;;;;491082;241;27640;-69
2021/07/29 01:08:28;;;;;;;2.73;2.40;;;14.30;99.90;;;;;;491114;241;28333;-69
2021/07/29 01:10:30;;;;;;;3.27;3.07;;;14.30;99.90;;;;;;491115;241;28338;-71
2021/07/29 01:12:31;;;;;;;3.20;2.90;;;14.30;99.90;;;;;;491078;241;28314;-69
2021/07/29 01:14:33;;;;;;;2.93;2.73;;;;;;;;;;491106;241;28218;-72
2021/07/29 01:16:34;;;;;;;3.93;3.23;;;14.30;99.90;;;;;;491093;241;27511;-69
2021/07/29 01:18:36;;;;;;;3.33;3.03;;;;;;;;;;491097;240;28699;-71
2021/07/29 01:20:37;;;;;;;3.33;3.03;;;14.20;99.90;;;;;;491134;241;28006;-69
2021/07/29 01:22:39;;;;;;;3.23;3.03;;;14.20;99.90;;;;;;491069;241;28763;-70
2021/07/29 01:24:40;;;;;;;5.47;3.77;;;14.30;99.90;;;;;;489730;241;28352;-69
2021/07/29 01:26:41;;;;;;;4.33;3.13;;;14.20;99.90;;;;;;490294;241;28450;-68
2021/07/29 01:28:42;;;;;;;3.87;3.50;;;14.30;99.90;;;;;;490778;241;28128;-69
2021/07/29 01:30:44;;;;;;;3.60;3.30;;;14.30;99.90;;;;;;490976;240;28369;-69
2021/07/29 01:32:45;;;;;;;3.40;3.10;;;14.40;99.90;;;;;;491074;241;28350;-69
2021/07/29 01:34:46;;;;;;;3.33;3.03;;;14.40;99.90;;;;;;491102;240;28446;-71
2021/07/29 01:36:47;;;;;;;3.63;3.27;;;14.40;99.90;;;;;;491072;241;28453;-69
2021/07/29 01:38:49;;;;;;;3.00;2.80;;;14.50;99.90;;;;;;491114;241;28188;-69
2021/07/29 01:40:50;;;;;;;4.10;3.50;;;14.50;99.90;;;;;;491117;241;28217;-70
2021/07/29 01:42:51;;;;;;;3.70;3.40;;;14.40;99.90;;;;;;491095;240;28858;-70
2021/07/29 01:44:52;;;;;;;3.03;2.83;;;14.40;99.90;;;;;;491133;240;29047;-69
2021/07/29 01:46:54;;;;;;;4.43;3.30;;;14.50;99.90;;;;;;491108;240;28882;-69
2021/07/29 01:48:55;;;;;;;3.00;2.80;;;14.50;99.90;;;;;;491121;241;28902;-70
2021/07/29 01:50:56;;;;;;;3.90;3.50;;;14.60;99.90;;;;;;491122;241;28228;-69
2021/07/29 01:52:58;;;;;;;3.40;3.10;;;14.60;99.90;;;;;;491082;241;28463;-71
2021/07/29 01:55:00;;;;;;;3.57;3.27;;;14.60;99.90;;;;;;491119;241;28392;-71
2021/07/29 01:57:00;;;;;;;6.40;3.27;;;14.60;99.90;;;;;;491084;241;28435;-69
2021/07/29 01:59:06;;;;;;;4.77;3.40;;;14.60;99.90;;;;;;491117;241;28371;-69
2021/07/29 02:01:03;;;;;;;3.60;3.30;;;14.60;99.90;;;;;;490758;242;28564;-69
2021/07/29 02:03:04;;;;;;;4.30;3.67;;;14.60;99.90;;;;;;491101;241;28403;-69
2021/07/29 02:05:05;;;;;;;3.50;3.20;;;14.60;99.90;;;;;;491131;240;28518;-69
2021/07/29 02:07:06;;;;;;;4.03;2.87;;;14.60;99.90;;;;;;491120;240;28454;-68
2021/07/29 02:09:08;;;;;;;4.37;3.57;;;14.60;99.90;;;;;;491121;240;29060;-69
2021/07/29 02:11:09;;;;;;;2.70;2.50;;;14.60;99.90;;;;;;491126;241;29429;-69
2021/07/29 02:13:10;;;;;;;3.40;3.10;;;14.60;99.90;;;;;;491126;241;28868;-70
2021/07/29 02:15:11;;;;;;;3.67;3.23;;;14.70;99.90;;;;;;491135;241;28632;-69
2021/07/29 02:17:13;;;;;;;3.30;3.00;;;14.70;99.90;;;;;;491130;240;28462;-69
2021/07/29 02:19:14;;;;;;;3.50;3.20;;;14.70;99.90;;;;;;491132;241;28285;-69
2021/07/29 02:21:15;;;;;;;4.20;2.80;;;14.70;99.90;;;;;;491115;240;28667;-69
2021/07/29 02:23:16;;;;;;;3.60;3.30;;;14.70;99.90;;;;;;491093;241;28423;-69
2021/07/29 02:25:18;;;;;;;7.30;3.20;;;14.60;99.90;;;;;;491116;241;28542;-71
2021/07/29 02:27:19;;;;;;;3.50;3.20;;;14.60;99.90;;;;;;491103;241;28670;-70
2021/07/29 02:29:20;;;;;;;5.97;3.10;;;14.60;99.90;;;;;;491112;242;28433;-70
2021/07/29 02:31:21;;;;;;;4.53;3.80;;;14.70;99.90;;;;;;491142;241;28314;-70
2021/07/29 02:33:23;;;;;;;3.17;2.90;;;14.60;99.90;;;;;;491109;240;28849;-71
2021/07/29 02:35:24;;;;;;;2.90;2.70;;;14.60;99.90;;;;;;491131;240;29481;-69
2021/07/29 02:37:25;;;;;;;4.00;3.60;;;14.60;99.90;;;;;;491096;241;28797;-71
2021/07/29 02:39:26;;;;;;;3.80;3.13;;;14.60;99.90;;;;;;491127;240;28307;-71
2021/07/29 02:41:28;;;;;;;4.10;3.40;;;14.60;99.90;;;;;;491126;241;28418;-69
2021/07/29 02:43:29;;;;;;;3.00;2.80;;;14.60;99.90;;;;;;491082;241;28186;-69
2021/07/29 02:45:30;;;;;;;3.30;3.00;;;14.60;99.90;;;;;;491126;240;28504;-69
2021/07/29 02:47:31;;;;;;;3.77;3.37;;;14.70;99.90;;;;;;491089;241;28456;-70
2021/07/29 02:49:33;;;;;;;4.10;3.33;;;14.70;99.90;;;;;;491132;240;28094;-69
2021/07/29 02:51:34;;;;;;;3.10;2.90;;;14.60;99.90;;;;;;491121;240;28556;-69
2021/07/29 02:53:35;;;;;;;3.40;3.10;;;14.60;99.90;;;;;;491093;241;28074;-69
2021/07/29 02:55:36;;;;;;;6.07;3.13;;;14.60;99.90;;;;;;491109;241;28224;-69
2021/07/29 02:57:38;;;;;;;3.73;3.00;;;14.60;99.90;;;;;;491075;240;29311;-71
2021/07/29 02:59:39;;;;;;;3.70;3.40;;;14.50;99.90;;;;;;491105;241;28788;-71
2021/07/29 03:01:40;;;;;;;3.37;3.00;;;14.50;99.90;;;;;;491110;241;28800;-68
2021/07/29 03:03:41;;;;;;;3.33;3.03;;;14.50;99.90;;;;;;491087;240;28188;-71
2021/07/29 03:05:43;;;;;;;4.00;2.70;;;14.50;99.90;;;;;;491105;240;28300;-71
2021/07/29 03:07:44;;;;;;;3.53;3.23;;;14.60;99.90;;;;;;491104;241;28897;-69
2021/07/29 03:09:45;;;;;;;2.97;2.77;;;14.60;99.90;;;;;;491107;240;28270;-70
2021/07/29 03:11:46;;;;;;;3.43;3.20;;;14.60;99.90;;;;;;491112;240;28440;-69
2021/07/29 03:13:48;;;;;;;3.70;3.40;;;14.50;99.90;;;;;;491081;240;28237;-70
2021/07/29 03:15:49;;;;;;;2.90;2.70;;;14.60;99.90;;;;;;491102;240;28547;-70
2021/07/29 03:17:50;;;;;;;3.20;3.00;;;14.70;99.90;;;;;;491092;240;28258;-71
2021/07/29 03:19:51;;;;;;;4.53;3.47;;;14.70;99.90;;;;;;491087;241;28828;-69
2021/07/29 03:21:53;;;;;;;4.20;3.80;;;14.70;99.90;;;;;;491113;240;29178;-70
2021/07/29 03:23:54;;;;;;;3.20;2.90;;;14.70;99.90;;;;;;491065;240;30088;-69
2021/07/29 03:25:55;;;;;;;4.97;3.30;;;14.70;99.90;;;;;;491128;240;29193;-69
2021/07/29 03:27:56;;;;;;;3.40;3.00;;;14.70;99.90;;;;;;491106;240;29233;-70
2021/07/29 03:29:58;;;;;;;4.10;3.70;;;14.70;99.90;;;;;;491119;240;28426;-69
2021/07/29 03:31:59;;;;;;;3.47;3.17;;;14.80;99.90;;;;;;491112;241;28862;-71
2021/07/29 03:34:00;;;;;;;3.43;3.00;;;14.80;99.90;;;;;;491066;241;28456;-70
2021/07/29 03:36:01;;;;;;;4.33;2.83;;;14.80;99.90;;;;;;491103;240;28822;-71
2021/07/29 03:38:03;;;;;;;3.40;3.10;;;14.80;99.90;;;;;;491056;241;28762;-69
2021/07/29 03:40:04;;;;;;;3.30;3.00;;;14.90;99.90;;;;;;491125;241;28610;-69
2021/07/29 03:42:05;;;;;;;3.97;2.90;;;14.90;99.90;;;;;;491126;240;28436;-71
2021/07/29 03:44:06;;;;;;;3.40;3.10;;;14.90;99.90;;;;;;491089;241;28437;-71
2021/07/29 03:46:08;;;;;;;3.40;3.10;;;14.90;99.90;;;;;;491106;241;28926;-71
2021/07/29 03:48:09;;;;;;;3.63;3.33;;;14.90;99.90;;;;;;491080;241;29430;-69
2021/07/29 03:50:10;;;;;;;3.30;3.00;;;14.90;99.90;;;;;;491115;240;29273;-69
2021/07/29 03:52:11;;;;;;;3.80;2.97;;;14.90;99.90;;;;;;491141;240;29300;-69
2021/07/29 03:54:13;;;;;;;3.23;3.03;;;14.90;99.90;;;;;;491094;241;28319;-69
2021/07/29 03:56:14;;;;;;;3.60;3.30;;;14.90;99.90;;;;;;491116;241;28410;-69
2021/07/29 03:58:16;;;;;;;3.90;3.20;;;14.90;99.90;;;;;;491104;241;28523;-69
2021/07/29 04:00:16;;;;;;;4.73;3.43;;;15.00;99.90;;;;;;491067;240;28580;-69
2021/07/29 04:02:18;;;;;;;3.00;2.80;;;15.00;99.90;;;;;;491091;241;28861;-69
2021/07/29 04:04:19;;;;;;;3.60;3.07;;;15.00;99.90;;;;;;491078;241;28406;-69
2021/07/29 04:06:20;;;;;;;5.43;3.27;;;15.00;99.90;;;;;;491111;240;28754;-69
2021/07/29 04:08:21;;;;;;;3.53;3.10;;;15.00;99.90;;;;;;491109;241;28459;-69
2021/07/29 04:10:23;;;;;;;4.17;3.77;;;15.00;99.90;;;;;;491147;240;29297;-69
2021/07/29 04:12:24;;;;;;;3.00;2.80;;;15.00;99.90;;;;;;491110;240;29219;-69
2021/07/29 04:14:25;;;;;;;3.30;3.00;;;15.00;99.90;;;;;;491086;240;29403;-70
2021/07/29 04:16:26;;;;;;;3.10;2.80;;;15.00;99.90;;;;;;491121;241;29259;-69
2021/07/29 04:18:28;;;;;;;4.03;3.00;;;15.00;99.90;;;;;;491084;240;28335;-69
2021/07/29 04:20:29;;;;;;;3.40;3.10;;;15.10;99.90;;;;;;490973;242;28985;-71
2021/07/29 04:22:30;;;;;;;3.87;2.67;;;15.10;99.90;;;;;;491104;241;28750;-69
2021/07/29 04:24:31;;;;;;;3.43;3.13;;;15.10;99.90;;;;;;491085;241;28762;-69
2021/07/29 04:26:33;;;;;;;3.50;2.93;;;15.10;99.90;;;;;;491103;241;28727;-69
2021/07/29 04:28:34;;;;;;;3.03;2.73;;;15.10;99.90;;;;;;490988;241;28441;-69
2021/07/29 04:30:35;;;;;;;3.47;3.17;;;15.10;99.90;;;;;;491113;240;28820;-70
2021/07/29 04:32:36;;;;;;;3.50;3.20;;;15.10;99.90;;;;;;491114;240;28829;-69
2021/07/29 04:34:39;;;;;;;3.30;3.10;;;15.00;99.90;;;;;;491034;241;28882;-69
2021/07/29 04:36:39;;;;;;;3.53;3.13;;;15.10;99.90;;;;;;491024;242;29197;-71
2021/07/29 04:38:40;;;;;;;4.27;3.70;;;15.10;99.90;;;;;;491082;240;29342;-70
2021/07/29 04:40:41;;;;;;;4.30;3.17;;;15.10;99.90;;;;;;491090;241;29214;-71
2021/07/29 04:42:43;;;;;;;3.53;3.23;;;15.10;99.90;;;;;;491095;240;28913;-71
2021/07/29 04:44:44;;;;;;;4.90;3.17;;;15.10;99.90;;;;;;491078;241;28755;-69
2021/07/29 04:46:45;;;;;;;5.43;3.23;;;15.10;99.90;;;;;;491105;241;28735;-69
2021/07/29 04:48:46;;;;;;;3.30;3.00;;;15.10;99.90;;;;;;491060;241;28850;-69
2021/07/29 04:50:48;;;;;;;3.90;3.50;;;15.10;99.90;;;;;;491099;241;28747;-71
2021/07/29 04:52:53;;;;;;;2.93;2.73;;;15.10;99.90;;;;;;491092;241;28210;-72
2021/07/29 04:54:50;;;;;;;3.53;3.07;;;15.10;99.90;;;;;;490618;242;28928;-71
2021/07/29 04:56:51;;;;;;;3.60;3.20;;;15.10;99.90;;;;;;491097;241;28915;-68
2021/07/29 04:58:53;;;;;;;4.03;3.30;;;15.10;99.90;;;;;;491073;241;28743;-69
2021/07/29 05:00:54;;;;;;;3.20;3.00;;;15.10;99.90;;;;;;491106;240;29382;-69
2021/07/29 05:02:55;;;;;;;3.20;3.00;;;15.00;99.90;;;;;;491056;241;29369;-70
2021/07/29 05:04:56;;;;;;;3.97;2.83;;;15.00;99.90;;;;;;491078;236;29451;-69
2021/07/29 05:06:58;;;;;;;3.33;3.03;;;15.00;99.90;;;;;;491109;241;28228;-69
2021/07/29 05:08:59;;;;;;;3.63;3.17;;;15.00;99.90;;;;;;491095;241;28845;-69
2021/07/29 05:11:00;;;;;;;3.13;2.83;;;15.00;99.90;;;;;;491101;241;28721;-69
2021/07/29 05:13:01;;;;;;;3.13;2.90;;;15.00;99.90;;;;;;491107;241;28433;-71
2021/07/29 05:15:03;;;;;;;5.70;2.97;;;15.00;99.90;;;;;;491104;241;28849;-70
2021/07/29 05:17:04;;;;;;;3.07;2.87;;;15.10;99.90;;;;;;491066;241;28750;-70
2021/07/29 05:19:05;;;;;;;3.33;3.13;;;15.20;99.90;;;;;;491083;241;28440;-70
2021/07/29 05:21:06;;;;;;;3.57;3.27;;;15.30;99.90;;;;;;491082;237;28722;-70
2021/07/29 05:23:08;;;;;;;3.33;3.03;;;15.40;99.90;;;;;;491094;241;28791;-71
2021/07/29 05:25:09;;;;;;;3.60;3.23;;;15.40;99.90;;;;;;491015;241;29352;-71
2021/07/29 05:27:10;;;;;;;3.57;2.93;;;15.50;99.90;;;;;;491058;236;29211;-69
2021/07/29 05:29:11;;;;;;;4.30;3.27;;;15.50;99.90;;;;;;491065;241;29301;-69
2021/07/29 05:31:13;;;;;;;3.23;3.03;;;15.50;99.90;;;;;;491072;241;30147;-69
2021/07/29 05:33:14;;;;;;;7.50;3.23;;;15.50;99.90;;;;;;491099;241;28710;-69
2021/07/29 05:35:15;;;;;;;4.63;3.60;;;15.60;99.90;;;;;;491074;241;28747;-71
2021/07/29 05:37:16;;;;;;;3.60;3.30;;;15.60;99.90;;;;;;491114;241;28732;-71
2021/07/29 05:39:18;;;;;;;3.47;3.17;;;15.60;99.90;;;;;;491088;241;28759;-72
2021/07/29 05:41:19;;;;;;;3.30;3.00;;;15.60;99.90;;;;;;491102;241;28745;-70
2021/07/29 05:43:20;;;;;;;4.43;3.57;;;15.60;99.90;;;;;;491108;241;28825;-71
2021/07/29 05:45:21;;;;;;;3.80;3.00;;;15.70;99.90;;;;;;491081;241;28874;-70
2021/07/29 05:47:23;;;;;;;4.50;3.40;;;15.60;99.90;;;;;;491106;241;28781;-71
2021/07/29 05:49:24;;;;;;;3.67;3.37;;;15.60;99.90;;;;;;491082;241;29239;-71
2021/07/29 05:51:25;;;;;;;3.70;3.40;;;15.60;99.90;;;;;;491097;241;29676;-71
2021/07/29 05:53:26;;;;;;;4.63;2.90;;;15.70;99.90;;;;;;491092;241;29444;-68
2021/07/29 05:55:28;;;;;;;3.30;3.10;;;15.70;99.90;;;;;;491065;241;29233;-69
2021/07/29 05:57:29;;;;;;;3.70;3.40;;;15.60;99.90;;;;;;491101;241;28917;-71
2021/07/29 05:59:30;;;;;;;3.43;3.13;;;15.60;99.90;;;;;;491076;241;28787;-69
2021/07/29 06:01:31;;;;;;;5.40;3.40;;;15.60;99.90;;;;;;491105;241;28948;-71
2021/07/29 06:03:34;;;;;;;3.37;3.00;;;15.60;99.90;;;;;;491125;241;28933;-70
2021/07/29 06:05:34;;;;;;;4.50;3.63;;;15.60;99.90;;;;;;491024;242;28877;-72
2021/07/29 06:07:35;;;;;;;3.80;3.20;;;15.50;99.90;;;;;;491111;241;28810;-70
2021/07/29 06:09:36;;;;;;;4.10;3.70;;;15.50;99.90;;;;;;491102;240;28930;-69
2021/07/29 06:11:38;;;;;;;6.97;3.43;;;15.50;99.90;;;;;;491147;240;28945;-69
2021/07/29 06:13:39;;;;;;;3.40;3.10;;;15.40;99.90;;;;;;491117;241;28736;-71
2021/07/29 06:15:41;;;;;;;4.43;3.43;;;;;;;;;;491074;241;29436;-71
2021/07/29 06:17:45;;;;;;;5.40;3.67;;;15.50;99.90;;;;;;491100;241;27893;-72
2021/07/29 06:19:44;;;;;;;3.50;3.20;;;15.50;99.90;;;;;;490885;242;29209;-71
2021/07/29 06:21:46;;;;;;;3.70;3.40;;;15.60;99.90;;;;;;491027;241;28843;-68
2021/07/29 06:23:46;;;;;;;5.20;3.50;;;15.60;99.90;;;;;;491084;241;28865;-72
2021/07/29 06:25:47;;;;;;;3.53;3.10;;;15.60;99.90;;;;;;491093;240;28898;-69
2021/07/29 06:27:49;;;;;;;3.40;3.10;;;15.70;99.90;;;;;;491119;240;28925;-69
2021/07/29 06:29:50;;;;;;;4.17;3.03;;;15.60;99.90;;;;;;491080;240;28731;-71
2021/07/29 06:31:51;;;;;;;3.47;3.00;;;15.70;99.90;;;;;;491109;241;28866;-71
2021/07/29 06:33:52;;;;;;;3.60;3.30;;;15.70;99.90;;;;;;491116;240;28940;-71
2021/07/29 06:35:54;;;;;;;3.97;3.57;;;15.70;99.90;;;;;;491084;240;28921;-69
2021/07/29 06:37:57;;;;;;;3.47;3.17;;;15.60;99.90;;;;;;491110;240;28762;-69
2021/07/29 06:39:57;;;;;;;3.30;3.00;;;;;;;;;;490953;242;30062;-71
2021/07/29 06:41:59;;;;;;;3.77;3.30;;;;;;;;;;491105;241;28612;-70
2021/07/29 06:44:00;;;;;;;4.23;3.10;;;15.70;99.90;;;;;;491110;241;27835;-70
2021/07/29 06:46:01;;;;;;;3.87;3.00;;;15.70;99.90;;;;;;491076;241;28810;-71
2021/07/29 06:48:04;;;;;;;3.37;3.07;;;;;;;;;;491133;240;28858;-71
2021/07/29 06:50:05;;;;;;;5.30;3.80;;;15.80;99.90;;;;;;491099;241;27520;-72
2021/07/29 06:52:06;;;;;;;4.80;3.17;;;15.90;99.90;;;;;;491116;241;28917;-71
2021/07/29 06:54:08;;;;;;;3.10;2.80;;;;;;;;;;491095;240;28842;-71
2021/07/29 06:56:09;;;;;;;2.97;2.67;;;15.90;99.90;;;;;;491091;241;27520;-71
2021/07/29 06:58:11;;;;;;;3.37;3.07;;;15.90;99.90;;;;;;491106;241;28846;-69
2021/07/29 07:00:12;;;;;;;3.23;2.93;;;16.00;99.90;;;;;;491067;242;28814;-69
2021/07/29 07:02:13;;;;;;;3.50;2.80;;;16.10;99.90;;;;;;491095;241;28860;-71
2021/07/29 07:04:14;;;;;;;4.10;3.00;;;16.10;99.90;;;;;;491109;240;28711;-71
2021/07/29 07:06:16;;;;;;;3.57;3.27;;;16.10;99.90;;;;;;490933;241;29325;-71
2021/07/29 07:08:17;;;;;;;3.40;3.10;;;16.10;99.90;;;;;;491120;240;29258;-71
2021/07/29 07:10:18;;;;;;;3.70;2.83;;;16.10;99.90;;;;;;491076;241;29336;-72
2021/07/29 07:12:19;;;;;;;3.17;2.87;;;16.20;99.90;;;;;;491097;241;28774;-72
2021/07/29 07:14:21;;;;;;;2.83;2.63;;;16.30;99.90;;;;;;491098;241;28716;-71
2021/07/29 07:16:22;;;;;;;3.43;3.13;;;16.30;99.90;;;;;;491085;241;28754;-69
2021/07/29 07:18:23;;;;;;;5.10;2.83;;;16.30;99.90;;;;;;491103;240;28756;-69
2021/07/29 07:20:24;;;;;;;3.23;2.93;;;16.40;99.90;;;;;;491083;241;28734;-69
2021/07/29 07:22:26;;;;;;;5.47;3.47;;;16.30;99.90;;;;;;491113;241;28762;-69
2021/07/29 07:24:27;;;;;;;3.17;2.87;;;16.40;99.90;;;;;;491116;240;28839;-71
2021/07/29 07:26:28;;;;;;;4.60;2.83;;;16.30;99.90;;;;;;491072;241;28870;-69
2021/07/29 07:28:29;;;;;;;3.33;2.70;;;16.40;99.90;;;;;;491116;240;29095;-69
2021/07/29 07:30:34;;;;;;;4.03;2.90;;;16.40;99.90;;;;;;491075;241;29182;-69
2021/07/29 07:32:32;;;;;;;4.30;2.97;;;16.50;99.90;;;;;;490753;242;29313;-69
2021/07/29 07:34:33;;;;;;;4.03;3.10;;;16.50;99.90;;;;;;491121;240;29282;-69
2021/07/29 07:36:34;;;;;;;3.90;2.97;;;16.60;99.90;;;;;;491076;241;29383;-71
2021/07/29 07:38:36;;;;;;;3.63;2.97;;;16.60;99.90;;;;;;491102;241;28849;-72
2021/07/29 07:40:37;;;;;;;4.93;2.80;;;16.60;99.90;;;;;;491097;240;28715;-72
2021/07/29 07:42:38;;;;;;;6.00;3.10;;;16.70;99.90;;;;;;491116;240;28826;-72
2021/07/29 07:44:39;;;;;;;3.33;2.83;;;16.70;99.90;;;;;;491081;241;28921;-71
2021/07/29 07:46:41;;;;;;;6.57;3.40;;;16.80;99.90;;;;;;490914;241;28794;-71
2021/07/29 07:48:42;;;;;;;3.30;2.87;;;16.80;99.90;;;;;;491079;240;28881;-71
2021/07/29 07:50:43;;;;;;;3.10;2.90;;;16.90;99.90;;;;;;491068;241;28723;-69
2021/07/29 07:52:44;;;;;;;3.67;3.23;;;16.90;99.90;;;;;;491067;241;28755;-69
2021/07/29 07:54:46;;;;;;;2.60;2.40;;;17.00;99.90;;;;;;491091;240;29300;-69
2021/07/29 07:56:47;;;;;;;5.50;2.93;;;17.00;99.90;;;;;;491057;241;29281;-69
2021/07/29 07:58:48;;;;;;;6.03;2.80;;;17.00;99.90;;;;;;491099;241;29303;-69
2021/07/29 08:00:49;;;;;;;4.33;2.70;;;17.00;99.90;;;;;;491050;240;29288;-71
2021/07/29 08:02:51;;;;;;;6.70;3.90;;;16.90;99.90;;;;;;491068;241;28865;-71
2021/07/29 08:04:52;;;;;;;6.90;3.13;;;17.00;99.90;;;;;;491093;241;28732;-69
2021/07/29 08:06:53;;;;;;;3.03;2.70;;;17.00;99.90;;;;;;491071;241;28810;-70
2021/07/29 08:08:54;;;;;;;3.03;2.70;;;17.10;99.90;;;;;;491113;240;28960;-69
2021/07/29 08:10:56;;;;;;;3.57;2.70;;;17.00;99.90;;;;;;491119;240;28896;-71
2021/07/29 08:12:57;;;;;;;4.87;3.50;;;17.00;99.90;;;;;;491151;240;28859;-71
2021/07/29 08:14:58;;;;;;;3.50;2.90;;;17.00;99.90;;;;;;491097;241;28877;-71
2021/07/29 08:16:59;;;;;;;5.93;2.70;;;17.10;99.90;;;;;;491077;241;28826;-71
2021/07/29 08:19:01;;;;;;;2.83;2.53;;;17.10;99.90;;;;;;491118;241;28757;-71
2021/07/29 08:21:02;;;;;;;2.93;2.73;;;17.10;99.90;;;;;;491099;240;29292;-71
2021/07/29 08:23:03;;;;;;;3.10;2.53;;;17.10;99.90;;;;;;491090;240;29393;-71
2021/07/29 08:25:04;;;;;;;3.10;2.80;;;17.20;99.90;;;;;;491107;241;29271;-71
2021/07/29 08:27:06;;;;;;;3.17;2.87;;;17.20;99.90;;;;;;491067;240;28718;-71
2021/07/29 08:29:07;;;;;;;2.57;2.37;;;17.20;99.90;;;;;;491120;241;28849;-69
2021/07/29 08:31:09;;;;;;;4.33;2.60;;;17.30;99.90;;;;;;491067;241;28872;-69
2021/07/29 08:33:10;;;;;;;4.03;2.70;;;17.40;99.90;;;;;;491071;241;28829;-71
2021/07/29 08:35:11;;;;;;;4.33;3.23;;;17.40;99.90;;;;;;491120;241;28834;-71
2021/07/29 08:37:13;;;;;;;3.10;2.80;;;17.40;99.90;;;;;;491090;241;29175;-71
2021/07/29 08:39:13;;;;;;;2.97;2.67;;;17.40;99.90;;;;;;491088;241;29369;-69
2021/07/29 08:41:15;;;;;;;3.90;2.63;;;17.50;99.90;;;;;;491097;241;29248;-69
2021/07/29 08:43:16;;;;;;;4.10;2.60;;;17.60;99.90;;;;;;491037;240;28743;-68
2021/07/29 08:45:17;;;;;;;3.47;2.50;;;17.80;99.90;;;;;;491087;240;28747;-71
2021/07/29 08:47:18;;;;;;;3.40;2.70;;;17.70;99.90;;;;;;491076;241;28874;-69
2021/07/29 08:49:20;;;;;;;6.60;3.17;;;17.70;99.90;;;;;;491100;241;28854;-69
2021/07/29 08:51:23;;;;;;;4.47;2.70;;;17.60;99.90;;;;;;491066;241;28898;-69
2021/07/29 08:53:22;;;;;;;2.70;2.50;;;17.70;99.90;;;;;;490951;241;28803;-72
2021/07/29 08:55:23;;;;;;;5.07;2.83;;;17.80;99.90;;;;;;491099;241;28762;-72
2021/07/29 08:57:25;;;;;;;3.67;2.80;;;17.90;99.90;;;;;;491094;241;28726;-71
2021/07/29 08:59:26;;;;;;;3.63;3.10;;;17.90;99.90;;;;;;491097;241;28842;-69
2021/07/29 09:01:27;;;;;;;3.57;3.23;;;18.00;99.90;;;;;;491091;241;30284;-71
2021/07/29 09:03:29;;;;;;;5.00;2.90;;;18.00;99.90;;;;;;491098;241;29234;-71
2021/07/29 09:05:30;;;;;;;3.80;3.17;;;18.00;99.90;;;;;;490996;242;29332;-69
2021/07/29 09:07:32;;;;;;;4.17;3.07;;;17.90;99.90;;;;;;491075;241;28818;-69
2021/07/29 09:09:32;;;;;;;3.40;3.00;;;18.00;99.90;;;;;;491004;242;28824;-69
2021/07/29 09:11:37;;;;;;;3.40;2.70;;;18.00;99.90;;;;;;491061;241;28866;-69
2021/07/29 09:13:38;;;;;;;3.03;2.70;;;18.10;99.90;;;;;;490660;242;28726;-69
2021/07/29 09:15:36;;;;;;;2.20;2.10;;;18.30;99.90;;;;;;490841;242;28850;-69
2021/07/29 09:17:37;;;;;;;2.83;2.63;;;18.20;99.90;;;;;;491067;241;28915;-69
2021/07/29 09:19:39;;;;;;;3.30;3.00;;;18.20;99.90;;;;;;491079;241;28878;-69
2021/07/29 09:21:40;;;;;;;2.93;2.63;;;18.10;99.90;;;;;;490915;241;29072;-69
2021/07/29 09:23:41;;;;;;;3.23;2.53;;;18.10;99.90;;;;;;490948;241;28722;-69
2021/07/29 09:25:42;;;;;;;4.33;3.00;;;18.30;99.90;;;;;;490920;241;29328;-70
2021/07/29 09:27:43;;;;;;;3.00;2.80;;;18.20;99.90;;;;;;490792;241;29317;-70
2021/07/29 09:29:45;;;;;;;3.13;2.83;;;18.10;99.90;;;;;;491057;241;29282;-70
2021/07/29 09:31:46;;;;;;;2.60;2.40;;;18.00;99.90;;;;;;491065;241;29331;-72
2021/07/29 09:33:47;;;;;;;3.10;2.70;;;18.00;99.90;;;;;;491039;241;28810;-71
2021/07/29 09:35:49;;;;;;;2.67;2.47;;;18.10;99.90;;;;;;491131;241;28958;-71
2021/07/29 09:37:50;;;;;;;3.37;2.70;;;18.10;99.90;;;;;;491094;240;28714;-72
2021/07/29 09:39:51;;;;;;;4.40;3.20;;;18.10;99.90;;;;;;491132;241;28908;-72
2021/07/29 09:41:58;;;;;;;2.60;2.40;;;18.10;99.90;;;;;;491084;241;28864;-69
2021/07/29 09:43:54;;;;;;;2.67;2.47;;;18.30;99.90;;;;;;490670;242;28854;-69
2021/07/29 09:45:55;;;;;;;2.77;2.57;;;18.50;99.90;;;;;;491069;242;28857;-69
2021/07/29 09:47:57;;;;;;;2.60;2.40;;;18.50;99.90;;;;;;491072;241;28770;-69
2021/07/29 09:49:57;;;;;;;3.53;2.40;;;18.50;99.90;;;;;;491113;241;29336;-69
2021/07/29 09:51:59;;;;;;;2.43;2.23;;;18.30;99.90;;;;;;491117;241;29357;-70
2021/07/29 09:54:00;;;;;;;2.57;2.47;;;18.50;99.90;;;;;;491137;241;29247;-69
2021/07/29 09:56:01;;;;;;;4.40;2.57;;;18.80;99.90;;;;;;491135;240;29354;-70
2021/07/29 09:58:02;;;;;;;3.10;2.50;;;19.10;99.90;;;;;;491095;241;28822;-69
2021/07/29 10:00:04;;;;;;;2.87;2.67;;;19.20;99.90;;;;;;491108;241;28923;-69
2021/07/29 10:02:05;;;;;;;2.40;2.20;;;19.20;99.90;;;;;;491103;241;28772;-69
2021/07/29 10:04:06;;;;;;;3.40;3.10;;;19.00;99.90;;;;;;491132;240;28813;-71
2021/07/29 10:06:07;;;;;;;2.83;2.63;;;19.00;99.90;;;;;;491117;241;28864;-71
2021/07/29 10:08:09;;;;;;;2.40;2.20;;;19.30;99.90;;;;;;491110;240;28762;-71
2021/07/29 10:10:10;;;;;;;2.63;2.30;;;19.30;99.90;;;;;;491093;241;28808;-71
2021/07/29 10:12:11;;;;;;;2.80;2.47;;;19.50;99.90;;;;;;491115;241;28769;-71
2021/07/29 10:14:12;;;;;;;3.30;2.73;;;19.70;99.90;;;;;;491121;241;28883;-71
2021/07/29 10:16:14;;;;;;;2.47;2.30;;;19.60;99.90;;;;;;491117;241;29286;-71
2021/07/29 10:18:15;;;;;;;5.80;2.60;;;19.50;99.90;;;;;;490869;241;29740;-71
2021/07/29 10:20:23;;;;;;;3.43;2.57;;;19.50;99.90;;;;;;491121;241;29290;-71
2021/07/29 10:22:23;;;;;;;3.90;2.77;;;19.70;99.90;;;;;;491065;240;29220;-71
2021/07/29 10:24:25;;;;;;;3.23;2.53;;;19.90;99.90;;;;;;491097;241;28813;-71
2021/07/29 10:26:26;;;;;;;3.40;2.83;;;19.70;99.90;;;;;;491115;240;28757;-71
2021/07/29 10:28:27;;;;;;;2.60;2.40;;;19.70;99.90;;;;;;491062;241;28718;-71
2021/07/29 10:30:28;;;;;;;2.57;2.37;;;19.50;99.90;;;;;;491110;241;28754;-71
2021/07/29 10:32:30;;;;;;;3.90;2.50;;;19.40;99.90;;;;;;491090;240;28746;-72
2021/07/29 10:34:31;;;;;;;2.60;2.40;;;19.30;99.90;;;;;;491101;241;28861;-72
2021/07/29 10:36:32;;;;;;;2.60;2.40;;;19.50;99.90;;;;;;491103;240;28794;-69
2021/07/29 10:38:33;;;;;;;3.00;2.70;;;19.60;99.90;;;;;;491101;241;28821;-72